sensor_id;sensor_type;location;lat;lon;timestamp;temperature;humidity
27619;DHT22;15039;50.830;4.730;2023-04-01T00:00:28;10.10;99.90
27619;DHT22;15039;50.830;4.730;2023-04-01T00:02:54;10.10;99.90
27619;DHT22;15039;50.830;4.730;2023-04-01T00:05:20;10.10;99.90
27619;DHT22;15039;50.830;4.730;2023-04-01T00:07:45;10.10;99.90
27619;DHT22;15039;50.830;4.730;2023-04-01T00:10:13;10.10;99.90
27619;DHT22;15039;50.830;4.730;2023-04-01T00:12:39;10.20;99.90
27619;DHT22;15039;50.830;4.730;2023-04-01T00:15:07;10.00;99.90
27619;DHT22;15039;50.830;4.730;2023-04-01T00:17:34;10.00;99.90
27619;DHT22;15039;50.830;4.730;2023-04-01T00:20:00;10.10;99.90
27619;DHT22;15039;50.830;4.730;2023-04-01T00:22:26;10.20;99.90
27619;DHT22;15039;50.830;4.730;2023-04-01T00:24:53;10.20;99.90
27619;DHT22;15039;50.830;4.730;2023-04-01T00:27:20;10.20;99.90
27619;DHT22;15039;50.830;4.730;2023-04-01T00:29:46;10.10;99.90
27619;DHT22;15039;50.830;4.730;2023-04-01T00:32:13;10.20;99.90
27619;DHT22;15039;50.830;4.730;2023-04-01T00:34:39;10.10;99.90
27619;DHT22;15039;50.830;4.730;2023-04-01T00:37:06;10.20;99.90
27619;DHT22;15039;50.830;4.730;2023-04-01T00:39:35;10.10;99.90
27619;DHT22;15039;50.830;4.730;2023-04-01T00:42:01;10.00;99.90
27619;DHT22;15039;50.830;4.730;2023-04-01T00:44:30;10.10;99.90
27619;DHT22;15039;50.830;4.730;2023-04-01T00:46:56;10.10;99.90
27619;DHT22;15039;50.830;4.730;2023-04-01T00:49:28;10.00;99.90
27619;DHT22;15039;50.830;4.730;2023-04-01T00:52:00;10.00;99.90
27619;DHT22;15039;50.830;4.730;2023-04-01T00:54:27;10.10;99.90
27619;DHT22;15039;50.830;4.730;2023-04-01T00:57:10;10.20;99.90
27619;DHT22;15039;50.830;4.730;2023-04-01T00:59:40;10.10;99.90
27619;DHT22;15039;50.830;4.730;2023-04-01T01:02:11;10.00;99.90
27619;DHT22;15039;50.830;4.730;2023-04-01T01:04:36;10.00;99.90
27619;DHT22;15039;50.830;4.730;2023-04-01T01:15:33;9.90;99.90
27619;DHT22;15039;50.830;4.730;2023-04-01T01:18:21;9.90;99.90
27619;DHT22;15039;50.830;4.730;2023-04-01T01:26:39;10.00;99.90
27619;DHT22;15039;50.830;4.730;2023-04-01T01:32:15;10.00;99.90
27619;DHT22;15039;50.830;4.730;2023-04-01T01:37:52;10.10;99.90
27619;DHT22;15039;50.830;4.730;2023-04-01T01:40:19;10.10;99.90
27619;DHT22;15039;50.830;4.730;2023-04-01T01:42:49;10.10;99.90
27619;DHT22;15039;50.830;4.730;2023-04-01T01:45:18;10.00;99.90
27619;DHT22;15039;50.830;4.730;2023-04-01T01:47:48;10.10;99.90
27619;DHT22;15039;50.830;4.730;2023-04-01T01:50:15;10.10;99.90
27619;DHT22;15039;50.830;4.730;2023-04-01T01:52:42;10.10;99.90
27619;DHT22;15039;50.830;4.730;2023-04-01T01:55:26;10.20;99.90
27619;DHT22;15039;50.830;4.730;2023-04-01T01:57:52;10.20;99.90
27619;DHT22;15039;50.830;4.730;2023-04-01T02:00:19;10.30;99.90
27619;DHT22;15039;50.830;4.730;2023-04-01T02:02:47;10.20;99.90
27619;DHT22;15039;50.830;4.730;2023-04-01T02:05:24;10.20;99.90
27619;DHT22;15039;50.830;4.730;2023-04-01T02:10:41;10.20;99.90
27619;DHT22;15039;50.830;4.730;2023-04-01T02:13:29;10.20;99.90
27619;DHT22;15039;50.830;4.730;2023-04-01T02:16:00;10.20;99.90
27619;DHT22;15039;50.830;4.730;2023-04-01T02:18:28;10.20;99.90
27619;DHT22;15039;50.830;4.730;2023-04-01T02:20:57;10.10;99.90
27619;DHT22;15039;50.830;4.730;2023-04-01T02:23:25;10.10;99.90
27619;DHT22;15039;50.830;4.730;2023-04-01T02:25:52;10.10;99.90
27619;DHT22;15039;50.830;4.730;2023-04-01T02:28:19;10.00;99.90
27619;DHT22;15039;50.830;4.730;2023-04-01T02:30:47;10.00;99.90
27619;DHT22;15039;50.830;4.730;2023-04-01T02:33:15;10.00;99.90
27619;DHT22;15039;50.830;4.730;2023-04-01T02:35:41;10.00;99.90
27619;DHT22;15039;50.830;4.730;2023-04-01T02:38:07;10.00;99.90
27619;DHT22;15039;50.830;4.730;2023-04-01T02:40:48;9.90;99.90
27619;DHT22;15039;50.830;4.730;2023-04-01T02:43:14;10.10;99.90
27619;DHT22;15039;50.830;4.730;2023-04-01T02:45:41;9.90;99.90
27619;DHT22;15039;50.830;4.730;2023-04-01T02:48:07;9.90;99.90
27619;DHT22;15039;50.830;4.730;2023-04-01T02:50:33;9.90;99.90
27619;DHT22;15039;50.830;4.730;2023-04-01T02:53:00;9.90;99.90
27619;DHT22;15039;50.830;4.730;2023-04-01T02:55:25;9.80;99.90
27619;DHT22;15039;50.830;4.730;2023-04-01T02:57:51;9.80;99.90
27619;DHT22;15039;50.830;4.730;2023-04-01T03:00:17;9.80;99.90
27619;DHT22;15039;50.830;4.730;2023-04-01T03:02:43;9.80;99.90
27619;DHT22;15039;50.830;4.730;2023-04-01T03:05:09;9.80;99.90
27619;DHT22;15039;50.830;4.730;2023-04-01T03:07:35;9.80;99.90
27619;DHT22;15039;50.830;4.730;2023-04-01T03:10:01;9.80;99.90
27619;DHT22;15039;50.830;4.730;2023-04-01T03:12:26;9.80;99.90
27619;DHT22;15039;50.830;4.730;2023-04-01T03:14:52;9.90;99.90
27619;DHT22;15039;50.830;4.730;2023-04-01T03:17:18;9.80;99.90
27619;DHT22;15039;50.830;4.730;2023-04-01T03:19:43;9.80;99.90
27619;DHT22;15039;50.830;4.730;2023-04-01T03:22:10;9.80;99.90
27619;DHT22;15039;50.830;4.730;2023-04-01T03:24:36;9.70;99.90
27619;DHT22;15039;50.830;4.730;2023-04-01T03:27:02;9.70;99.90
27619;DHT22;15039;50.830;4.730;2023-04-01T03:29:28;9.80;99.90
27619;DHT22;15039;50.830;4.730;2023-04-01T03:31:53;9.80;99.90
27619;DHT22;15039;50.830;4.730;2023-04-01T03:34:19;9.80;99.90
27619;DHT22;15039;50.830;4.730;2023-04-01T03:36:44;9.90;99.90
27619;DHT22;15039;50.830;4.730;2023-04-01T03:39:10;9.80;99.90
27619;DHT22;15039;50.830;4.730;2023-04-01T03:41:37;9.80;99.90
27619;DHT22;15039;50.830;4.730;2023-04-01T03:44:03;9.90;99.90
27619;DHT22;15039;50.830;4.730;2023-04-01T03:46:29;9.80;99.90
27619;DHT22;15039;50.830;4.730;2023-04-01T03:48:55;9.90;99.90
27619;DHT22;15039;50.830;4.730;2023-04-01T03:51:20;9.80;99.90
27619;DHT22;15039;50.830;4.730;2023-04-01T03:53:46;9.90;99.90
27619;DHT22;15039;50.830;4.730;2023-04-01T03:56:12;9.80;99.90
27619;DHT22;15039;50.830;4.730;2023-04-01T03:58:37;9.80;99.90
27619;DHT22;15039;50.830;4.730;2023-04-01T04:01:20;9.90;99.90
27619;DHT22;15039;50.830;4.730;2023-04-01T04:03:49;9.90;99.90
27619;DHT22;15039;50.830;4.730;2023-04-01T04:06:16;9.90;99.90
27619;DHT22;15039;50.830;4.730;2023-04-01T04:08:43;9.90;99.90
27619;DHT22;15039;50.830;4.730;2023-04-01T04:11:09;9.80;99.90
27619;DHT22;15039;50.830;4.730;2023-04-01T04:13:35;9.80;99.90
27619;DHT22;15039;50.830;4.730;2023-04-01T04:16:02;9.80;99.90
27619;DHT22;15039;50.830;4.730;2023-04-01T04:18:28;9.80;99.90
27619;DHT22;15039;50.830;4.730;2023-04-01T04:20:54;9.80;99.90
27619;DHT22;15039;50.830;4.730;2023-04-01T04:23:20;9.80;99.90
27619;DHT22;15039;50.830;4.730;2023-04-01T04:26:01;9.80;99.90
27619;DHT22;15039;50.830;4.730;2023-04-01T04:28:27;9.90;99.90
27619;DHT22;15039;50.830;4.730;2023-04-01T04:30:54;9.90;99.90
27619;DHT22;15039;50.830;4.730;2023-04-01T04:33:20;9.80;99.90
27619;DHT22;15039;50.830;4.730;2023-04-01T04:35:46;9.80;99.90
27619;DHT22;15039;50.830;4.730;2023-04-01T04:38:12;9.90;99.90
27619;DHT22;15039;50.830;4.730;2023-04-01T04:40:39;10.00;99.90
27619;DHT22;15039;50.830;4.730;2023-04-01T04:43:05;9.90;99.90
27619;DHT22;15039;50.830;4.730;2023-04-01T04:45:31;9.90;99.90
27619;DHT22;15039;50.830;4.730;2023-04-01T04:47:57;9.80;99.90
27619;DHT22;15039;50.830;4.730;2023-04-01T04:50:23;9.80;99.90
27619;DHT22;15039;50.830;4.730;2023-04-01T04:52:49;9.80;99.90
27619;DHT22;15039;50.830;4.730;2023-04-01T04:55:15;9.70;99.90
27619;DHT22;15039;50.830;4.730;2023-04-01T04:57:41;9.70;99.90
27619;DHT22;15039;50.830;4.730;2023-04-01T05:00:07;9.70;99.90
27619;DHT22;15039;50.830;4.730;2023-04-01T05:02:33;9.70;99.90
27619;DHT22;15039;50.830;4.730;2023-04-01T05:04:59;9.70;99.90
27619;DHT22;15039;50.830;4.730;2023-04-01T05:07:24;9.70;99.90
27619;DHT22;15039;50.830;4.730;2023-04-01T05:09:50;9.70;99.90
27619;DHT22;15039;50.830;4.730;2023-04-01T05:12:16;9.70;99.90
27619;DHT22;15039;50.830;4.730;2023-04-01T05:14:41;9.70;99.90
27619;DHT22;15039;50.830;4.730;2023-04-01T05:17:13;9.70;99.90
27619;DHT22;15039;50.830;4.730;2023-04-01T05:19:40;9.70;99.90
27619;DHT22;15039;50.830;4.730;2023-04-01T05:22:07;9.70;99.90
27619;DHT22;15039;50.830;4.730;2023-04-01T05:24:36;9.70;99.90
27619;DHT22;15039;50.830;4.730;2023-04-01T05:27:23;9.70;99.90
27619;DHT22;15039;50.830;4.730;2023-04-01T05:29:49;9.70;99.90
27619;DHT22;15039;50.830;4.730;2023-04-01T05:32:14;9.70;99.90
27619;DHT22;15039;50.830;4.730;2023-04-01T05:34:40;9.70;99.90
27619;DHT22;15039;50.830;4.730;2023-04-01T05:37:06;9.70;99.90
27619;DHT22;15039;50.830;4.730;2023-04-01T05:39:36;9.80;99.90
27619;DHT22;15039;50.830;4.730;2023-04-01T05:42:03;9.80;99.90
27619;DHT22;15039;50.830;4.730;2023-04-01T05:44:30;9.80;99.90
27619;DHT22;15039;50.830;4.730;2023-04-01T05:46:56;9.90;99.90
27619;DHT22;15039;50.830;4.730;2023-04-01T05:49:21;9.90;99.90
27619;DHT22;15039;50.830;4.730;2023-04-01T05:51:47;9.90;99.90
27619;DHT22;15039;50.830;4.730;2023-04-01T05:54:13;9.80;99.90
27619;DHT22;15039;50.830;4.730;2023-04-01T05:56:38;9.80;99.90
27619;DHT22;15039;50.830;4.730;2023-04-01T05:59:04;9.80;99.90
27619;DHT22;15039;50.830;4.730;2023-04-01T06:01:30;9.70;99.90
27619;DHT22;15039;50.830;4.730;2023-04-01T06:03:55;9.70;99.90
27619;DHT22;15039;50.830;4.730;2023-04-01T06:06:26;9.70;99.90
27619;DHT22;15039;50.830;4.730;2023-04-01T06:08:53;9.70;99.90
27619;DHT22;15039;50.830;4.730;2023-04-01T06:11:35;9.70;99.90
27619;DHT22;15039;50.830;4.730;2023-04-01T06:14:38;9.60;99.90
27619;DHT22;15039;50.830;4.730;2023-04-01T06:23:01;9.60;99.90
27619;DHT22;15039;50.830;4.730;2023-04-01T06:28:38;9.60;99.90
27619;DHT22;15039;50.830;4.730;2023-04-01T06:36:58;9.60;99.90
27619;DHT22;15039;50.830;4.730;2023-04-01T06:50:52;9.50;99.90
27619;DHT22;15039;50.830;4.730;2023-04-01T06:56:22;9.60;99.90
27619;DHT22;15039;50.830;4.730;2023-04-01T06:58:53;9.50;99.90
27619;DHT22;15039;50.830;4.730;2023-04-01T07:01:35;9.60;99.90
27619;DHT22;15039;50.830;4.730;2023-04-01T07:04:09;9.60;99.90
27619;DHT22;15039;50.830;4.730;2023-04-01T07:06:39;9.60;99.90
27619;DHT22;15039;50.830;4.730;2023-04-01T07:09:21;9.70;99.90
27619;DHT22;15039;50.830;4.730;2023-04-01T07:11:47;9.70;99.90
27619;DHT22;15039;50.830;4.730;2023-04-01T07:14:30;9.70;99.90
27619;DHT22;15039;50.830;4.730;2023-04-01T07:17:17;9.80;99.90
27619;DHT22;15039;50.830;4.730;2023-04-01T07:19:47;9.70;99.90
27619;DHT22;15039;50.830;4.730;2023-04-01T07:24:59;9.70;99.90
27619;DHT22;15039;50.830;4.730;2023-04-01T07:27:26;9.80;99.90
27619;DHT22;15039;50.830;4.730;2023-04-01T07:29:55;9.70;99.90
27619;DHT22;15039;50.830;4.730;2023-04-01T07:35:18;9.80;99.90
27619;DHT22;15039;50.830;4.730;2023-04-01T07:46:30;9.90;99.90
27619;DHT22;15039;50.830;4.730;2023-04-01T07:52:06;10.00;99.90
27619;DHT22;15039;50.830;4.730;2023-04-01T08:00:09;9.90;99.90
27619;DHT22;15039;50.830;4.730;2023-04-01T08:06:00;9.80;99.90
27619;DHT22;15039;50.830;4.730;2023-04-01T08:08:36;9.80;99.90
27619;DHT22;15039;50.830;4.730;2023-04-01T08:11:27;9.80;99.90
27619;DHT22;15039;50.830;4.730;2023-04-01T08:22:02;9.80;99.90
27619;DHT22;15039;50.830;4.730;2023-04-01T08:24:37;9.80;99.90
27619;DHT22;15039;50.830;4.730;2023-04-01T08:27:17;9.80;99.90
27619;DHT22;15039;50.830;4.730;2023-04-01T08:32:36;10.20;99.90
27619;DHT22;15039;50.830;4.730;2023-04-01T08:35:36;10.20;99.90
27619;DHT22;15039;50.830;4.730;2023-04-01T08:38:21;10.10;99.90
27619;DHT22;15039;50.830;4.730;2023-04-01T08:44:16;10.10;99.90
27619;DHT22;15039;50.830;4.730;2023-04-01T09:00:57;10.20;99.90
27619;DHT22;15039;50.830;4.730;2023-04-01T09:12:18;10.30;99.90
27619;DHT22;15039;50.830;4.730;2023-04-01T09:20:30;10.40;99.90
27619;DHT22;15039;50.830;4.730;2023-04-01T09:28:17;10.50;99.90
27619;DHT22;15039;50.830;4.730;2023-04-01T09:31:01;10.50;99.90
27619;DHT22;15039;50.830;4.730;2023-04-01T09:36:22;10.70;99.90
27619;DHT22;15039;50.830;4.730;2023-04-01T09:50:16;10.80;99.90
27619;DHT22;15039;50.830;4.730;2023-04-01T10:04:30;10.80;99.90
27619;DHT22;15039;50.830;4.730;2023-04-01T10:23:35;10.60;99.90
27619;DHT22;15039;50.830;4.730;2023-04-01T10:43:40;11.00;99.90
27619;DHT22;15039;50.830;4.730;2023-04-01T10:46:30;11.10;99.90
27619;DHT22;15039;50.830;4.730;2023-04-01T11:20:06;11.40;99.90
27619;DHT22;15039;50.830;4.730;2023-04-01T11:28:39;11.70;99.90
27619;DHT22;15039;50.830;4.730;2023-04-01T11:34:09;11.80;99.90
27619;DHT22;15039;50.830;4.730;2023-04-01T11:45:05;11.70;99.90
27619;DHT22;15039;50.830;4.730;2023-04-01T12:07:10;11.50;99.90
27619;DHT22;15039;50.830;4.730;2023-04-01T12:19:51;11.50;99.90
27619;DHT22;15039;50.830;4.730;2023-04-01T12:24:52;11.60;99.90
27619;DHT22;15039;50.830;4.730;2023-04-01T12:44:41;11.60;99.90
27619;DHT22;15039;50.830;4.730;2023-04-01T12:55:59;11.30;99.90
27619;DHT22;15039;50.830;4.730;2023-04-01T12:58:54;11.30;99.90
27619;DHT22;15039;50.830;4.730;2023-04-01T13:01:42;11.30;99.90
27619;DHT22;15039;50.830;4.730;2023-04-01T13:07:23;11.30;99.90
27619;DHT22;15039;50.830;4.730;2023-04-01T13:10:08;11.10;99.90
27619;DHT22;15039;50.830;4.730;2023-04-01T13:12:55;11.00;99.90
27619;DHT22;15039;50.830;4.730;2023-04-01T13:21:54;10.80;99.90
27619;DHT22;15039;50.830;4.730;2023-04-01T13:24:59;10.80;99.90
27619;DHT22;15039;50.830;4.730;2023-04-01T13:27:40;10.80;99.90
27619;DHT22;15039;50.830;4.730;2023-04-01T13:38:39;11.10;99.90
27619;DHT22;15039;50.830;4.730;2023-04-01T13:41:18;11.20;99.90
27619;DHT22;15039;50.830;4.730;2023-04-01T13:43:54;11.20;99.90
27619;DHT22;15039;50.830;4.730;2023-04-01T13:58:15;11.10;99.90
27619;DHT22;15039;50.830;4.730;2023-04-01T14:12:12;10.80;99.90
27619;DHT22;15039;50.830;4.730;2023-04-01T14:14:58;10.70;99.90
27619;DHT22;15039;50.830;4.730;2023-04-01T14:20:17;10.90;99.90
27619;DHT22;15039;50.830;4.730;2023-04-01T14:26:07;10.80;99.90
27619;DHT22;15039;50.830;4.730;2023-04-01T14:40:27;10.90;99.90
27619;DHT22;15039;50.830;4.730;2023-04-01T14:48:53;10.60;99.90
27619;DHT22;15039;50.830;4.730;2023-04-01T14:54:00;10.50;99.90
27619;DHT22;15039;50.830;4.730;2023-04-01T14:56:46;10.60;99.90
27619;DHT22;15039;50.830;4.730;2023-04-01T15:05:32;11.20;99.90
27619;DHT22;15039;50.830;4.730;2023-04-01T15:08:09;11.20;99.90
27619;DHT22;15039;50.830;4.730;2023-04-01T15:16:04;11.50;99.90
27619;DHT22;15039;50.830;4.730;2023-04-01T15:24:25;11.50;99.90
27619;DHT22;15039;50.830;4.730;2023-04-01T15:29:46;11.60;99.90
27619;DHT22;15039;50.830;4.730;2023-04-01T15:36:16;11.70;99.90
27619;DHT22;15039;50.830;4.730;2023-04-01T15:38:19;11.70;99.90
27619;DHT22;15039;50.830;4.730;2023-04-01T15:43:44;11.50;99.90
27619;DHT22;15039;50.830;4.730;2023-04-01T15:46:44;11.50;99.90
27619;DHT22;15039;50.830;4.730;2023-04-01T15:49:28;11.40;99.90
27619;DHT22;15039;50.830;4.730;2023-04-01T15:52:12;11.20;99.90
27619;DHT22;15039;50.830;4.730;2023-04-01T16:49:00;10.80;99.90
27619;DHT22;15039;50.830;4.730;2023-04-01T16:51:44;10.70;99.90
27619;DHT22;15039;50.830;4.730;2023-04-01T16:54:25;10.60;99.90
27619;DHT22;15039;50.830;4.730;2023-04-01T16:57:02;10.60;99.90
27619;DHT22;15039;50.830;4.730;2023-04-01T17:02:25;10.30;99.90
27619;DHT22;15039;50.830;4.730;2023-04-01T17:05:05;10.20;99.90
27619;DHT22;15039;50.830;4.730;2023-04-01T17:21:45;9.80;99.90
27619;DHT22;15039;50.830;4.730;2023-04-01T17:35:56;9.80;99.90
27619;DHT22;15039;50.830;4.730;2023-04-01T17:38:48;9.80;99.90
27619;DHT22;15039;50.830;4.730;2023-04-01T17:41:53;9.80;99.90
27619;DHT22;15039;50.830;4.730;2023-04-01T17:52:32;9.80;99.90
27619;DHT22;15039;50.830;4.730;2023-04-01T18:14:31;9.80;99.90
27619;DHT22;15039;50.830;4.730;2023-04-01T18:17:21;9.80;99.90
27619;DHT22;15039;50.830;4.730;2023-04-01T18:20:11;9.70;99.90
27619;DHT22;15039;50.830;4.730;2023-04-01T18:23:06;9.80;99.90
27619;DHT22;15039;50.830;4.730;2023-04-01T18:25:40;9.80;99.90
27619;DHT22;15039;50.830;4.730;2023-04-01T18:28:14;9.70;99.90
27619;DHT22;15039;50.830;4.730;2023-04-01T18:30:44;9.70;99.90
27619;DHT22;15039;50.830;4.730;2023-04-01T18:39:32;9.70;99.90
27619;DHT22;15039;50.830;4.730;2023-04-01T18:44:50;9.60;99.90
27619;DHT22;15039;50.830;4.730;2023-04-01T18:56:34;9.50;99.90
27619;DHT22;15039;50.830;4.730;2023-04-01T19:02:27;9.50;99.90
27619;DHT22;15039;50.830;4.730;2023-04-01T19:07:51;9.50;99.90
27619;DHT22;15039;50.830;4.730;2023-04-01T19:10:40;9.50;99.90
27619;DHT22;15039;50.830;4.730;2023-04-01T19:13:45;9.50;99.90
27619;DHT22;15039;50.830;4.730;2023-04-01T19:36:31;9.40;99.90
27619;DHT22;15039;50.830;4.730;2023-04-01T19:38:38;9.40;99.90
27619;DHT22;15039;50.830;4.730;2023-04-01T19:50:15;9.30;99.90
27619;DHT22;15039;50.830;4.730;2023-04-01T19:52:42;9.40;99.90
27619;DHT22;15039;50.830;4.730;2023-04-01T20:00:43;9.40;99.90
27619;DHT22;15039;50.830;4.730;2023-04-01T20:03:54;9.40;99.90
27619;DHT22;15039;50.830;4.730;2023-04-01T20:07:04;9.40;99.90
27619;DHT22;15039;50.830;4.730;2023-04-01T20:12:25;9.30;99.90
27619;DHT22;15039;50.830;4.730;2023-04-01T20:14:57;9.30;99.90
27619;DHT22;15039;50.830;4.730;2023-04-01T20:17:38;9.30;99.90
27619;DHT22;15039;50.830;4.730;2023-04-01T20:25:26;9.30;99.90
27619;DHT22;15039;50.830;4.730;2023-04-01T20:36:08;9.10;99.90
27619;DHT22;15039;50.830;4.730;2023-04-01T20:47:22;9.30;99.90
27619;DHT22;15039;50.830;4.730;2023-04-01T20:52:54;9.30;99.90
27619;DHT22;15039;50.830;4.730;2023-04-01T20:55:47;9.30;99.90
27619;DHT22;15039;50.830;4.730;2023-04-01T20:58:23;9.30;99.90
27619;DHT22;15039;50.830;4.730;2023-04-01T21:26:47;9.50;99.90
27619;DHT22;15039;50.830;4.730;2023-04-01T21:34:58;9.50;99.90
27619;DHT22;15039;50.830;4.730;2023-04-01T21:40:29;9.50;99.90
27619;DHT22;15039;50.830;4.730;2023-04-01T21:43:31;9.60;99.90
27619;DHT22;15039;50.830;4.730;2023-04-01T21:46:47;9.50;99.90
27619;DHT22;15039;50.830;4.730;2023-04-01T21:55:04;9.50;99.90
27619;DHT22;15039;50.830;4.730;2023-04-01T21:58:02;9.70;99.90
27619;DHT22;15039;50.830;4.730;2023-04-01T22:00:59;9.70;99.90
27619;DHT22;15039;50.830;4.730;2023-04-01T22:06:31;9.70;99.90
27619;DHT22;15039;50.830;4.730;2023-04-01T22:09:09;9.80;99.90
27619;DHT22;15039;50.830;4.730;2023-04-01T22:12:04;9.80;99.90
27619;DHT22;15039;50.830;4.730;2023-04-01T22:14:43;9.90;99.90
27619;DHT22;15039;50.830;4.730;2023-04-01T22:23:08;9.60;99.90
27619;DHT22;15039;50.830;4.730;2023-04-01T22:28:28;9.60;99.90
27619;DHT22;15039;50.830;4.730;2023-04-01T22:31:02;9.60;99.90
27619;DHT22;15039;50.830;4.730;2023-04-01T22:44:17;9.40;99.90
27619;DHT22;15039;50.830;4.730;2023-04-01T22:47:02;9.40;99.90
27619;DHT22;15039;50.830;4.730;2023-04-01T22:49:40;9.40;99.90
27619;DHT22;15039;50.830;4.730;2023-04-01T22:52:42;9.40;99.90
27619;DHT22;15039;50.830;4.730;2023-04-01T22:55:14;9.40;99.90
27619;DHT22;15039;50.830;4.730;2023-04-01T22:58:00;9.50;99.90
27619;DHT22;15039;50.830;4.730;2023-04-01T23:03:05;9.60;99.90
27619;DHT22;15039;50.830;4.730;2023-04-01T23:05:35;9.60;99.90
27619;DHT22;15039;50.830;4.730;2023-04-01T23:10:58;9.50;99.90
27619;DHT22;15039;50.830;4.730;2023-04-01T23:13:47;9.50;99.90
27619;DHT22;15039;50.830;4.730;2023-04-01T23:16:22;9.40;99.90
27619;DHT22;15039;50.830;4.730;2023-04-01T23:18:58;9.30;99.90
27619;DHT22;15039;50.830;4.730;2023-04-01T23:21:50;9.30;99.90
27619;DHT22;15039;50.830;4.730;2023-04-01T23:24:40;9.20;99.90
27619;DHT22;15039;50.830;4.730;2023-04-01T23:27:21;9.30;99.90
27619;DHT22;15039;50.830;4.730;2023-04-01T23:29:48;9.20;99.90
27619;DHT22;15039;50.830;4.730;2023-04-01T23:32:18;9.40;99.90
27619;DHT22;15039;50.830;4.730;2023-04-01T23:34:51;9.30;99.90
27619;DHT22;15039;50.830;4.730;2023-04-01T23:37:17;9.20;99.90
27619;DHT22;15039;50.830;4.730;2023-04-01T23:39:53;9.10;99.90
27619;DHT22;15039;50.830;4.730;2023-04-01T23:42:28;9.00;99.90
27619;DHT22;15039;50.830;4.730;2023-04-01T23:45:11;8.80;99.90
27619;DHT22;15039;50.830;4.730;2023-04-01T23:47:39;8.70;99.90
27619;DHT22;15039;50.830;4.730;2023-04-01T23:50:22;8.70;99.90
27619;DHT22;15039;50.830;4.730;2023-04-01T23:52:53;8.70;99.90
27619;DHT22;15039;50.830;4.730;2023-04-01T23:55:27;8.80;99.90
